Time;durP1;ratioP1;P1;durP2;ratioP2;P2;SDS_P1;SDS_P2;PMS_P1;PMS_P2;Temp;Humidity;BMP_temperature;BMP_pressure;BME280_temperature;BME280_humidity;BME280_pressure;Samples;Min_cycle;Max_cycle;Signal;HPM_P1;HPM_P2
2022/11/08 00:02:41;;;;;;;;;;;;;;;10.69;58.01;100428.53;4387821;32;19970;-79
2022/11/08 00:16:14;;;;;;;;;;;;;;;10.64;58.30;100424.94;4384568;32;19990;-80
2022/11/08 00:18:42;;;;;;;;;;;;;;;10.66;58.10;100433.63;4392147;32;19986;-80
2022/11/08 00:21:10;;;;;;;;;;;;;;;10.71;57.71;100429.41;4399083;32;19970;-79
2022/11/08 00:23:38;;;;;;;;;;;;;;;10.75;57.49;100427.78;4398053;32;19990;-80
2022/11/08 00:26:06;;;;;;;;;;;;;;;10.80;57.49;100430.50;4398032;32;20033;-81
2022/11/08 00:28:33;;;;;;;;;;;;;;;10.43;58.67;100437.31;4391382;32;20386;-80
2022/11/08 00:31:05;;;;;;;;;;;;;;;10.20;59.03;100431.50;4383914;32;20062;-80
2022/11/08 00:33:33;;;;;;;;;;;;;;;10.55;57.95;100429.87;4382907;32;19998;-81
2022/11/08 00:36:00;;;;;;;;;;;;;;;10.71;57.52;100424.25;4388674;32;20721;-80
2022/11/08 00:38:27;;;;;;;;;;;;;;;10.78;57.52;100432.16;4386979;32;19978;-80
2022/11/08 00:40:54;;;;;;;;;;;;;;;10.71;57.44;100441.50;4389173;32;19974;-80
2022/11/08 00:43:20;;;;;;;;;;;;;;;10.62;57.76;100431.78;4386261;32;19994;-80
2022/11/08 00:45:47;;;;;;;;;;;;;;;10.70;57.50;100432.88;4274432;32;25301;-81
2022/11/08 00:48:15;;;;;;;;;;;;;;;10.62;58.07;100429.19;4313788;32;20340;-81
2022/11/08 00:50:42;;;;;;;;;;;;;;;10.62;57.98;100426.59;4407144;32;19998;-82
2022/11/08 00:53:09;;;;;;;;;;;;;;;10.60;57.88;100428.28;4399292;32;20683;-80
2022/11/08 00:55:36;;;;;;;;;;;;;;;10.28;59.04;100434.34;4399084;32;20000;-79
2022/11/08 00:58:02;;;;;;;;;;;;;;;10.44;57.95;100431.34;4399142;32;19978;-80
2022/11/08 01:00:29;;;;;;;;;;;;;;;10.44;57.95;100433.91;4405183;32;19996;-81
2022/11/08 01:05:42;;;;;;;;;;;;;;;10.50;57.35;100425.41;4405069;32;19986;-80
2022/11/08 01:08:09;;;;;;;;;;;;;;;10.37;57.94;100424.22;4399131;32;19978;-81
2022/11/08 01:10:35;;;;;;;;;;;;;;;10.35;58.00;100431.09;4401010;32;19969;-80
2022/11/08 01:13:03;;;;;;;;;;;;;;;10.38;57.73;100428.59;4407109;32;20027;-82
2022/11/08 01:15:35;;;;;;;;;;;;;;;10.38;57.42;100428.59;4388605;32;19989;-80
2022/11/08 01:18:02;;;;;;;;;;;;;;;10.34;57.42;100424.13;4412162;32;20132;-80
2022/11/08 01:20:29;;;;;;;;;;;;;;;10.11;57.93;100426.09;4412563;32;19984;-80
2022/11/08 01:22:56;;;;;;;;;;;;;;;10.12;58.06;100423.56;4412359;32;19978;-80
2022/11/08 01:25:23;;;;;;;;;;;;;;;10.17;58.22;100421.94;4407187;32;19989;-79
2022/11/08 01:27:50;;;;;;;;;;;;;;;10.37;57.69;100413.87;4397513;32;19986;-81
2022/11/08 01:30:17;;;;;;;;;;;;;;;10.10;58.63;100417.44;4406123;32;19982;-80
2022/11/08 01:32:45;;;;;;;;;;;;;;;9.86;58.84;100416.75;4378814;32;19982;-80
2022/11/08 01:35:12;;;;;;;;;;;;;;;10.10;58.00;100422.63;4374019;32;20801;-80
2022/11/08 01:37:39;;;;;;;;;;;;;;;10.25;57.14;100420.47;4368612;32;19991;-80
2022/11/08 01:40:06;;;;;;;;;;;;;;;10.05;57.98;100421.66;4368483;32;20029;-80
2022/11/08 01:42:33;;;;;;;;;;;;;;;9.98;58.07;100430.91;4368759;32;19998;-81
2022/11/08 01:45:01;;;;;;;;;;;;;;;10.14;57.71;100421.88;4379746;32;20344;-81
2022/11/08 01:47:27;;;;;;;;;;;;;;;10.00;58.28;100412.88;4369024;32;20661;-80
2022/11/08 01:49:55;;;;;;;;;;;;;;;10.23;57.60;100416.94;4370108;32;19987;-82
2022/11/08 01:52:32;;;;;;;;;;;;;;;10.13;57.84;100420.13;4377506;32;19990;-81
2022/11/08 01:55:00;;;;;;;;;;;;;;;9.89;58.58;100410.00;4379244;32;20027;-79
2022/11/08 01:57:30;;;;;;;;;;;;;;;9.80;58.72;100414.03;4407141;32;19990;-80
2022/11/08 01:59:57;;;;;;;;;;;;;;;9.67;59.28;100412.81;4391726;32;19979;-80
2022/11/08 02:02:25;;;;;;;;;;;;;;;9.83;58.51;100414.09;4382420;32;20001;-80
2022/11/08 02:04:52;;;;;;;;;;;;;;;9.77;58.66;100410.50;4390834;32;19990;-82
2022/11/08 02:07:18;;;;;;;;;;;;;;;10.06;57.49;100405.28;4383202;32;19983;-80
2022/11/08 02:09:46;;;;;;;;;;;;;;;10.08;57.02;100401.00;4371467;32;20049;-80
2022/11/08 02:12:14;;;;;;;;;;;;;;;9.77;57.67;100399.31;4388624;32;19989;-80
2022/11/08 02:14:41;;;;;;;;;;;;;;;9.66;58.50;100390.34;4391072;32;19990;-80
2022/11/08 02:17:08;;;;;;;;;;;;;;;9.73;57.76;100407.78;4398511;32;19975;-82
2022/11/08 02:19:37;;;;;;;;;;;;;;;9.82;57.36;100407.19;4384810;32;20616;-80
2022/11/08 02:22:05;;;;;;;;;;;;;;;9.50;58.50;100404.53;4393972;32;20001;-81
2022/11/08 02:24:32;;;;;;;;;;;;;;;9.44;58.42;100399.19;4388991;32;20021;-80
2022/11/08 02:26:59;;;;;;;;;;;;;;;9.47;58.37;100396.69;4383222;32;19990;-81
2022/11/08 02:29:30;;;;;;;;;;;;;;;9.69;57.28;100401.66;4390278;32;19982;-80
2022/11/08 02:31:58;;;;;;;;;;;;;;;9.89;56.70;100403.91;4383207;32;19979;-79
2022/11/08 02:34:29;;;;;;;;;;;;;;;9.49;57.64;100408.84;4385480;32;19978;-79
2022/11/08 02:36:56;;;;;;;;;;;;;;;9.35;58.32;100409.25;4397832;32;20016;-80
2022/11/08 02:39:23;;;;;;;;;;;;;;;9.55;57.76;100402.97;4397108;32;20050;-79
2022/11/08 02:41:51;;;;;;;;;;;;;;;9.45;58.03;100406.13;4382480;32;20323;-80
2022/11/08 02:44:18;;;;;;;;;;;;;;;9.43;58.15;100403.47;4400151;32;19977;-80
2022/11/08 02:46:45;;;;;;;;;;;;;;;9.35;58.08;100409.25;4400354;32;20726;-82
2022/11/08 02:49:12;;;;;;;;;;;;;;;9.39;57.76;100411.97;4397070;32;20716;-81
2022/11/08 02:51:40;;;;;;;;;;;;;;;9.59;57.15;100415.16;4383200;32;20044;-79
2022/11/08 02:54:07;;;;;;;;;;;;;;;9.48;57.40;100411.38;4393701;32;20233;-81
2022/11/08 02:56:34;;;;;;;;;;;;;;;9.37;57.95;100412.75;4369025;32;20001;-80
2022/11/08 02:59:00;;;;;;;;;;;;;;;9.56;57.13;100420.22;4379845;32;20383;-79
2022/11/08 03:01:28;;;;;;;;;;;;;;;9.60;56.97;100416.91;4375699;32;20034;-81
2022/11/08 03:03:55;;;;;;;;;;;;;;;9.47;56.97;100415.66;4368368;32;19987;-79
2022/11/08 03:06:23;;;;;;;;;;;;;;;9.44;56.97;100414.69;4373407;32;19982;-79
2022/11/08 03:08:50;;;;;;;;;;;;;;;9.19;57.67;100410.47;4391426;32;20425;-80
2022/11/08 03:26:44;;;;;;;;;;;;;;;9.26;57.43;100420.19;4398658;32;20039;-84
2022/11/08 03:29:12;;;;;;;;;;;;;;;8.95;58.47;100423.53;4390530;32;19994;-79
2022/11/08 03:31:39;;;;;;;;;;;;;;;9.02;58.69;100421.16;4383643;32;19979;-80
2022/11/08 03:34:06;;;;;;;;;;;;;;;8.94;59.15;100429.53;4381792;32;20454;-80
2022/11/08 03:36:33;;;;;;;;;;;;;;;9.37;57.49;100428.25;4385014;32;20021;-82
2022/11/08 03:39:00;;;;;;;;;;;;;;;9.29;57.95;100426.34;4389871;32;20280;-79
2022/11/08 03:41:27;;;;;;;;;;;;;;;9.34;57.62;100428.16;4387648;32;19974;-79
2022/11/08 03:43:54;;;;;;;;;;;;;;;8.93;59.08;100425.16;4386523;32;19972;-79
2022/11/08 03:46:21;;;;;;;;;;;;;;;9.05;59.15;100435.88;4382966;32;20029;-80
2022/11/08 03:48:48;;;;;;;;;;;;;;;8.83;60.43;100435.19;4384145;32;20044;-82
2022/11/08 03:51:15;;;;;;;;;;;;;;;9.05;59.06;100430.72;4392900;32;19955;-82
2022/11/08 03:53:42;;;;;;;;;;;;;;;8.79;60.03;100433.34;4381266;32;20058;-79
2022/11/08 03:56:09;;;;;;;;;;;;;;;8.85;60.01;100433.56;4391574;32;19993;-79
2022/11/08 03:58:36;;;;;;;;;;;;;;;8.97;59.81;100435.66;4382591;32;20005;-83
2022/11/08 04:01:04;;;;;;;;;;;;;;;9.35;58.13;100429.91;4381856;32;19978;-82
2022/11/08 04:03:31;;;;;;;;;;;;;;;9.32;58.39;100425.56;4382856;32;19975;-82
2022/11/08 04:05:59;;;;;;;;;;;;;;;9.34;58.20;100428.16;4382625;32;19993;-80
2022/11/08 04:08:26;;;;;;;;;;;;;;;8.75;60.10;100431.50;4382385;32;20328;-80
2022/11/08 04:10:54;;;;;;;;;;;;;;;8.78;60.03;100431.59;4384132;32;19988;-82
2022/11/08 04:16:07;;;;;;;;;;;;;;;9.06;57.97;100424.72;4390878;32;19978;-80
2022/11/08 04:21:22;;;;;;;;;;;;;;;8.96;57.95;100425.25;4381232;32;19989;-80
2022/11/08 04:23:51;;;;;;;;;;;;;;;9.15;57.52;100427.59;4383017;32;19982;-80
2022/11/08 04:26:18;;;;;;;;;;;;;;;9.10;57.32;100425.72;4376690;32;20836;-81
2022/11/08 04:28:45;;;;;;;;;;;;;;;8.63;58.86;100423.34;4389486;32;19997;-80
2022/11/08 04:31:15;;;;;;;;;;;;;;;8.91;58.04;100421.69;4395630;32;20053;-80
2022/11/08 04:33:42;;;;;;;;;;;;;;;8.75;58.53;100420.31;4396214;32;19978;-79
2022/11/08 04:36:10;;;;;;;;;;;;;;;8.91;57.91;100421.69;4392286;32;20097;-81
2022/11/08 04:38:37;;;;;;;;;;;;;;;8.87;58.24;100412.97;4382266;32;20037;-84
2022/11/08 04:41:05;;;;;;;;;;;;;;;8.77;59.13;100419.50;4374421;32;20020;-80
2022/11/08 04:43:33;;;;;;;;;;;;;;;8.92;58.72;100418.25;4382978;32;20053;-83
2022/11/08 04:46:01;;;;;;;;;;;;;;;8.98;58.66;100413.28;4392128;32;19994;-81
2022/11/08 04:48:29;;;;;;;;;;;;;;;8.93;58.57;100417.41;4387084;32;20346;-80
2022/11/08 04:51:03;;;;;;;;;;;;;;;8.80;59.43;100411.84;4389870;32;20073;-82
2022/11/08 04:53:29;;;;;;;;;;;;;;;9.05;59.02;100410.06;4384438;32;19991;-79
2022/11/08 04:56:00;;;;;;;;;;;;;;;8.93;59.48;100409.69;4384669;32;19974;-79
2022/11/08 04:58:28;;;;;;;;;;;;;;;9.03;59.26;100402.28;4388751;32;20000;-84
2022/11/08 05:00:57;;;;;;;;;;;;;;;8.94;59.70;100406.28;4386791;32;20320;-79
2022/11/08 05:03:25;;;;;;;;;;;;;;;9.18;58.94;100411.31;4382712;32;19990;-79
2022/11/08 05:05:51;;;;;;;;;;;;;;;9.17;59.43;100407.88;4386110;32;20034;-79
2022/11/08 05:08:18;;;;;;;;;;;;;;;9.29;59.31;100409.97;4391158;32;19993;-79
2022/11/08 05:10:46;;;;;;;;;;;;;;;9.46;59.10;100407.88;4384252;32;19978;-80
2022/11/08 05:13:13;;;;;;;;;;;;;;;9.34;59.59;100403.22;4389940;32;19982;-79
2022/11/08 05:15:41;;;;;;;;;;;;;;;9.04;61.69;100413.50;4384771;32;19983;-79
2022/11/08 05:18:08;;;;;;;;;;;;;;;9.49;60.14;100415.72;4385760;32;19979;-82
2022/11/08 05:23:24;;;;;;;;;;;;;;;9.50;60.49;100409.72;4382279;32;19994;-79
2022/11/08 05:25:52;;;;;;;;;;;;;;;9.25;61.53;100424.50;4370142;32;20332;-79
2022/11/08 05:28:19;;;;;;;;;;;;;;;9.30;61.77;100422.91;4383872;32;20374;-78
2022/11/08 05:30:53;;;;;;;;;;;;;;;9.47;61.37;100425.12;4382626;32;19970;-77
2022/11/08 05:33:20;;;;;;;;;;;;;;;9.40;61.65;100425.78;4382863;32;20042;-79
2022/11/08 05:35:47;;;;;;;;;;;;;;;9.50;61.48;100430.37;4391156;32;19998;-80
2022/11/08 05:38:14;;;;;;;;;;;;;;;9.68;60.92;100425.75;4382569;32;19982;-82
2022/11/08 05:40:41;;;;;;;;;;;;;;;9.36;62.46;100432.56;4384403;32;20016;-80
2022/11/08 05:43:08;;;;;;;;;;;;;;;9.62;61.38;100435.91;4388901;32;20005;-79
2022/11/08 05:45:35;;;;;;;;;;;;;;;9.82;60.80;100431.31;4378674;32;20063;-80
2022/11/08 05:48:02;;;;;;;;;;;;;;;9.68;61.61;100433.50;4370201;32;20012;-81
2022/11/08 05:50:32;;;;;;;;;;;;;;;9.83;61.33;100429.59;4384056;32;19975;-81
2022/11/08 05:53:03;;;;;;;;;;;;;;;9.54;62.23;100432.25;4388063;32;19993;-80
2022/11/08 05:55:30;;;;;;;;;;;;;;;9.64;62.17;100435.97;4382491;32;19991;-80
2022/11/08 05:57:58;;;;;;;;;;;;;;;9.89;61.29;100432.38;4389629;32;20340;-79
2022/11/08 06:00:25;;;;;;;;;;;;;;;9.81;62.02;100436.47;4382129;32;19987;-79
2022/11/08 06:02:52;;;;;;;;;;;;;;;9.72;62.42;100432.75;4383897;32;19994;-80
2022/11/08 06:05:19;;;;;;;;;;;;;;;9.75;62.10;100432.84;4385270;32;20033;-79
2022/11/08 06:07:46;;;;;;;;;;;;;;;9.73;62.42;100429.38;4376093;32;20080;-80
2022/11/08 06:10:13;;;;;;;;;;;;;;;9.60;63.27;100432.41;4370358;32;20028;-80
2022/11/08 06:12:40;;;;;;;;;;;;;;;9.80;62.84;100437.31;4375538;32;19993;-80
2022/11/08 06:15:07;;;;;;;;;;;;;;;9.68;63.13;100446.44;4363651;32;780664;-80
2022/11/08 06:17:34;;;;;;;;;;;;;;;9.68;63.41;100446.44;4382214;32;20001;-80
